Time;durP1;ratioP1;P1;durP2;ratioP2;P2;SDS_P1;SDS_P2;PMS_P1;PMS_P2;Temp;Humidity;BMP_temperature;BMP_pressure;BME280_temperature;BME280_humidity;BME280_pressure;Samples;Min_cycle;Max_cycle;Signal;HPM_P1;HPM_P2
2021/07/15 00:00:37;;;;;;;0.70;0.60;;;15.00;99.90;;;15.61;100.00;-21105.72;5105525;28;20469;-81
2021/07/15 00:03:10;;;;;;;0.70;0.67;;;14.80;99.90;;;15.58;100.00;-21105.06;5088680;28;20435;-80
2021/07/15 00:05:40;;;;;;;0.70;0.70;;;14.80;99.90;;;15.55;100.00;-21104.09;5088020;28;20430;-80
2021/07/15 00:08:10;;;;;;;0.70;0.60;;;14.70;99.90;;;15.58;100.00;-21104.91;5087760;28;20463;-81
2021/07/15 00:10:43;;;;;;;0.70;0.70;;;14.70;99.90;;;15.56;100.00;-21104.38;5087931;28;20838;-81
2021/07/15 00:13:13;;;;;;;0.70;0.70;;;14.70;99.90;;;15.49;100.00;-21102.56;5088983;28;20434;-80
2021/07/15 00:15:49;;;;;;;0.70;0.60;;;14.70;99.90;;;15.42;100.00;-21100.78;5071969;28;20857;-80
2021/07/15 00:18:24;;;;;;;0.70;0.60;;;14.60;99.90;;;15.44;100.00;-21101.19;5072311;28;20422;-81
2021/07/15 00:20:52;;;;;;;0.77;0.73;;;14.60;99.90;;;15.40;100.00;-21100.25;5055555;28;20465;-80
2021/07/15 00:23:19;;;;;;;0.70;0.70;;;14.60;99.90;;;15.41;100.00;-21100.50;5086801;28;20553;-80
2021/07/15 00:25:49;;;;;;;0.70;0.60;;;14.60;99.90;;;15.41;100.00;-21100.50;5091909;28;20422;-80
2021/07/15 00:28:18;;;;;;;0.70;0.70;;;14.60;99.90;;;15.42;100.00;-21100.78;5086383;28;20545;-79
2021/07/15 00:30:47;;;;;;;0.70;0.70;;;14.60;99.90;;;15.39;100.00;-21099.97;5059842;28;20470;-80
2021/07/15 00:33:15;;;;;;;0.70;0.70;;;14.60;99.90;;;15.34;100.00;-21098.59;5092214;28;20413;-80
2021/07/15 00:35:45;;;;;;;0.70;0.60;;;14.60;99.90;;;15.31;100.00;-21097.75;5075210;28;20430;-80
2021/07/15 00:38:15;;;;;;;0.70;0.60;;;14.50;99.90;;;15.22;100.00;-21095.28;5075094;28;20965;-80
2021/07/15 00:40:45;;;;;;;0.70;0.60;;;14.40;99.90;;;15.12;100.00;-21092.69;5092716;28;20457;-79
2021/07/15 00:43:13;;;;;;;0.70;0.70;;;14.40;99.90;;;15.13;100.00;-21092.81;5086522;28;20431;-80
2021/07/15 00:45:41;;;;;;;0.70;0.60;;;14.30;99.90;;;15.15;100.00;-21093.50;5053020;28;20431;-80
2021/07/15 00:48:10;;;;;;;0.70;0.70;;;14.30;99.90;;;15.12;100.00;-21092.69;5072870;28;20423;-79
2021/07/15 00:50:42;;;;;;;0.77;0.77;;;14.30;99.90;;;15.17;100.00;-21093.91;5056209;28;20454;-80
2021/07/15 00:53:14;;;;;;;0.70;0.60;;;14.30;99.90;;;15.18;100.00;-21094.19;5064107;28;20548;-80
2021/07/15 00:55:43;;;;;;;0.70;0.70;;;14.40;99.90;;;15.20;100.00;-21094.88;5055747;28;20436;-80
2021/07/15 00:58:14;;;;;;;0.70;0.70;;;14.40;99.90;;;15.14;100.00;-21093.09;5083102;28;20825;-80
2021/07/15 01:00:47;;;;;;;0.70;0.60;;;14.40;99.90;;;15.11;100.00;-21092.25;5087761;28;21059;-80
2021/07/15 01:03:19;;;;;;;0.70;0.60;;;14.30;99.90;;;15.09;100.00;-21091.72;5086750;28;20443;-80
2021/07/15 01:05:51;;;;;;;0.70;0.60;;;14.30;99.90;;;15.05;100.00;-21090.75;5070952;28;20416;-80
2021/07/15 01:08:21;;;;;;;0.80;0.80;;;14.30;99.90;;;14.98;100.00;-21088.97;5090913;28;20552;-80
2021/07/15 01:10:53;;;;;;;0.70;0.70;;;14.20;99.90;;;14.95;100.00;-21088.00;5090707;28;20426;-80
2021/07/15 01:13:41;;;;;;;0.70;0.70;;;14.20;99.90;;;14.98;100.00;-21088.97;5091688;28;20933;-80
2021/07/15 01:16:30;;;;;;;0.70;0.70;;;14.20;99.90;;;15.00;100.00;-21089.25;5091714;28;20478;-79
2021/07/15 01:19:39;;;;;;;0.70;0.60;;;14.20;99.90;;;14.95;100.00;-21088.13;5086228;28;20491;-79
2021/07/15 01:22:14;;;;;;;0.70;0.60;;;14.20;99.90;;;14.89;100.00;-21086.50;5056073;28;20630;-79
2021/07/15 01:25:34;;;;;;;0.70;0.70;;;14.10;99.90;;;14.82;100.00;-21084.56;5055275;28;20450;-80
2021/07/15 01:28:14;;;;;;;0.70;0.60;;;14.10;99.90;;;14.79;100.00;-21083.59;5086180;28;20427;-81
2021/07/15 01:30:47;;;;;;;0.70;0.60;;;14.00;99.90;;;14.77;100.00;-21083.19;5091624;28;20429;-81
2021/07/15 01:33:23;;;;;;;0.73;0.73;;;14.00;99.90;;;14.74;100.00;-21082.34;5093090;28;20903;-80
2021/07/15 01:35:57;;;;;;;0.70;0.60;;;13.90;99.90;;;14.78;100.00;-21083.47;5074669;28;20934;-80
2021/07/15 01:38:30;;;;;;;0.70;0.70;;;13.90;99.90;;;14.93;100.00;-21087.44;5106089;28;20472;-80
2021/07/15 01:41:07;;;;;;;0.70;0.70;;;14.10;99.90;;;15.04;100.00;-21090.34;5090619;28;20844;-80
2021/07/15 01:43:42;;;;;;;0.70;0.60;;;14.20;99.90;;;15.10;100.00;-21092.00;5104333;28;20435;-80
2021/07/15 01:46:14;;;;;;;0.70;0.70;;;14.20;99.90;;;15.18;100.00;-21094.31;5085645;28;20448;-80
2021/07/15 01:48:45;;;;;;;0.70;0.60;;;14.30;99.90;;;15.32;100.00;-21098.03;5095289;28;20497;-80
2021/07/15 01:51:15;;;;;;;0.70;0.60;;;14.40;99.90;;;15.45;100.00;-21101.47;5095727;28;20463;-81
2021/07/15 01:53:51;;;;;;;0.70;0.60;;;14.50;99.90;;;15.58;100.00;-21104.91;5078446;28;20683;-80
2021/07/15 01:56:21;;;;;;;0.70;0.60;;;14.70;99.90;;;15.57;100.00;-21104.63;5094048;28;20511;-79
2021/07/15 01:58:53;;;;;;;0.70;0.70;;;14.70;99.90;;;15.49;100.00;-21102.44;5076849;28;20430;-80
2021/07/15 02:01:24;;;;;;;0.70;0.60;;;14.70;99.90;;;15.43;100.00;-21101.06;5079164;28;20471;-80
2021/07/15 02:03:56;;;;;;;0.70;0.63;;;14.70;99.90;;;15.38;100.00;-21099.69;5074931;28;20411;-80
2021/07/15 02:06:27;;;;;;;0.70;0.70;;;14.60;99.90;;;15.32;100.00;-21098.03;5075008;28;20465;-80
2021/07/15 02:09:03;;;;;;;0.70;0.70;;;14.50;99.90;;;15.21;100.00;-21095.00;5076035;28;20982;-80
2021/07/15 02:11:35;;;;;;;0.70;0.70;;;14.40;99.90;;;15.16;100.00;-21093.63;5074474;28;20446;-80
2021/07/15 02:14:09;;;;;;;0.70;0.70;;;14.30;99.90;;;15.09;100.00;-21091.72;5057251;28;20469;-80
2021/07/15 02:16:43;;;;;;;0.70;0.60;;;14.30;99.90;;;15.05;100.00;-21090.63;5072457;28;21014;-80
2021/07/15 02:19:13;;;;;;;0.70;0.70;;;14.20;99.90;;;15.01;100.00;-21089.50;5041395;28;20442;-80
2021/07/15 02:21:42;;;;;;;0.70;0.63;;;14.20;99.90;;;14.94;100.00;-21087.72;5074456;28;20451;-80
2021/07/15 02:24:22;;;;;;;0.70;0.60;;;14.10;99.90;;;14.89;100.00;-21086.34;5058144;28;20458;-81
2021/07/15 02:26:54;;;;;;;0.70;0.70;;;14.10;99.90;;;14.84;100.00;-21085.13;5057668;28;20451;-81
2021/07/15 02:29:21;;;;;;;0.70;0.60;;;14.00;99.90;;;14.72;100.00;-21081.81;5075653;28;20418;-80
2021/07/15 02:32:00;;;;;;;0.70;0.60;;;13.90;99.90;;;14.72;100.00;-21081.94;5087601;28;20582;-80
2021/07/15 02:34:42;;;;;;;0.70;0.70;;;13.90;99.90;;;14.70;100.00;-21081.41;5079400;28;20439;-80
2021/07/15 02:37:19;;;;;;;0.70;0.70;;;13.90;99.90;;;14.75;100.00;-21082.63;5074093;28;20419;-81
2021/07/15 02:39:49;;;;;;;0.70;0.60;;;13.80;99.90;;;14.84;100.00;-21085.13;5075349;28;20440;-80
2021/07/15 02:42:17;;;;;;;0.80;0.80;;;13.80;99.90;;;14.86;100.00;-21085.66;5074938;28;20475;-80
2021/07/15 02:44:50;;;;;;;0.67;0.60;;;13.90;99.90;;;14.81;100.00;-21084.28;5076087;28;20449;-80
2021/07/15 02:47:20;;;;;;;0.70;0.70;;;13.80;99.90;;;14.73;100.00;-21082.22;5075135;28;20460;-80
2021/07/15 02:49:58;;;;;;;0.70;0.60;;;13.80;99.90;;;14.75;100.00;-21082.63;5073439;28;21187;-80
2021/07/15 02:52:26;;;;;;;0.70;0.70;;;13.80;99.90;;;14.77;100.00;-21083.06;5057469;28;20399;-81
2021/07/15 02:54:54;;;;;;;0.70;0.67;;;13.80;99.90;;;14.75;100.00;-21082.63;5073276;28;20469;-80
2021/07/15 02:57:30;;;;;;;0.70;0.60;;;13.70;99.90;;;14.68;100.00;-21080.72;5073760;28;20443;-80
2021/07/15 03:00:06;;;;;;;0.70;0.70;;;13.70;99.90;;;14.65;100.00;-21079.88;5073442;28;20454;-81
2021/07/15 03:02:46;;;;;;;0.70;0.67;;;13.70;99.90;;;14.82;100.00;-21084.56;5073325;28;20872;-81
2021/07/15 03:05:21;;;;;;;0.60;0.60;;;13.80;99.90;;;14.85;100.00;-21085.38;5082334;28;20430;-81
2021/07/15 03:07:57;;;;;;;0.70;0.60;;;13.90;99.90;;;14.84;100.00;-21085.13;5093992;28;20446;-81
2021/07/15 03:10:26;;;;;;;0.70;0.60;;;13.90;99.90;;;14.93;100.00;-21087.59;5087686;28;20769;-80
2021/07/15 03:12:57;;;;;;;0.70;0.60;;;13.90;99.90;;;15.00;100.00;-21089.25;5091272;28;20419;-81
2021/07/15 03:15:26;;;;;;;0.60;0.60;;;14.00;99.90;;;15.08;100.00;-21091.44;5092324;28;20495;-81
2021/07/15 03:17:56;;;;;;;0.70;0.70;;;14.10;99.90;;;15.12;100.00;-21092.53;5093499;28;20839;-81
2021/07/15 03:20:32;;;;;;;0.70;0.67;;;14.10;99.90;;;15.23;100.00;-21095.56;5089230;28;20439;-80
2021/07/15 03:23:06;;;;;;;0.70;0.70;;;14.30;99.90;;;15.33;100.00;-21098.31;5087545;28;20478;-80
2021/07/15 03:25:34;;;;;;;0.70;0.70;;;14.40;99.90;;;15.48;100.00;-21102.16;5093643;28;20924;-81
2021/07/15 03:28:12;;;;;;;0.67;0.60;;;14.50;99.90;;;15.62;100.00;-21106.00;5076706;28;20513;-81
2021/07/15 03:30:40;;;;;;;0.70;0.70;;;14.60;99.90;;;15.70;100.00;-21108.22;5090986;28;20491;-81
2021/07/15 03:33:12;;;;;;;0.70;0.60;;;14.70;99.90;;;15.67;100.00;-21107.41;5090555;28;20791;-81
2021/07/15 03:35:41;;;;;;;0.70;0.63;;;14.80;99.90;;;15.70;100.00;-21108.34;5072589;28;20958;-81
2021/07/15 03:38:10;;;;;;;0.70;0.60;;;14.80;99.90;;;15.82;100.00;-21111.50;5073092;28;20472;-81
2021/07/15 03:40:39;;;;;;;0.70;0.70;;;14.90;99.90;;;15.91;100.00;-21114.00;5089792;28;20458;-80
2021/07/15 03:43:09;;;;;;;0.60;0.60;;;14.90;99.90;;;15.91;100.00;-21113.84;5072951;28;20901;-81
2021/07/15 03:45:38;;;;;;;0.70;0.70;;;15.00;99.90;;;15.91;100.00;-21113.84;5072986;28;20854;-81
2021/07/15 03:48:10;;;;;;;0.70;0.60;;;15.00;99.90;;;15.93;100.00;-21114.53;5071870;28;20524;-81
2021/07/15 03:50:38;;;;;;;0.70;0.60;;;15.00;99.90;;;15.96;100.00;-21115.09;5070360;28;20424;-80
2021/07/15 03:53:08;;;;;;;0.70;0.70;;;15.10;99.90;;;16.05;100.00;-21117.56;5055300;28;20541;-81
2021/07/15 03:55:37;;;;;;;0.70;0.70;;;15.10;99.90;;;16.09;100.00;-21118.66;5072845;28;21030;-81
2021/07/15 03:58:09;;;;;;;0.73;0.73;;;15.20;99.90;;;16.14;100.00;-21120.03;5072643;28;20484;-80
2021/07/15 04:00:38;;;;;;;0.60;0.60;;;15.30;99.90;;;16.13;100.00;-21119.91;5076178;28;20426;-79
2021/07/15 04:03:29;;;;;;;0.70;0.70;;;15.30;99.90;;;16.21;100.00;-21121.97;5073374;28;20461;-80
2021/07/15 04:05:57;;;;;;;0.70;0.70;;;15.30;99.90;;;16.23;100.00;-21122.50;5071610;28;20468;-81
2021/07/15 04:08:27;;;;;;;0.70;0.70;;;15.40;99.90;;;16.33;100.00;-21125.25;5072578;28;20877;-80
2021/07/15 04:11:02;;;;;;;0.63;0.60;;;15.40;99.90;;;16.39;100.00;-21126.91;5070528;28;20438;-81
2021/07/15 04:13:29;;;;;;;0.70;0.70;;;15.50;99.90;;;16.45;100.00;-21128.28;5072079;28;20441;-81
2021/07/15 04:16:25;;;;;;;0.70;0.60;;;15.60;99.90;;;16.43;100.00;-21128.00;5086268;28;20876;-81
2021/07/15 04:19:01;;;;;;;0.70;0.60;;;15.60;99.90;;;16.45;100.00;-21128.41;5075732;28;20434;-80
2021/07/15 04:21:29;;;;;;;0.70;0.70;;;15.60;99.90;;;16.46;100.00;-21128.53;5092577;28;20461;-81
2021/07/15 04:23:58;;;;;;;0.70;0.60;;;15.70;99.90;;;16.47;100.00;-21128.81;5093629;28;20852;-81
2021/07/15 04:26:27;;;;;;;0.70;0.70;;;15.70;99.90;;;16.49;100.00;-21129.50;5090435;28;20501;-80
2021/07/15 04:28:55;;;;;;;0.70;0.60;;;15.70;99.90;;;16.54;100.00;-21130.75;5069752;28;20487;-81
2021/07/15 04:32:12;;;;;;;0.67;0.60;;;15.70;99.90;;;16.48;100.00;-21129.22;5087556;28;20465;-81
2021/07/15 04:34:44;;;;;;;0.70;0.70;;;15.70;99.90;;;16.48;100.00;-21129.09;5070015;28;20881;-81
2021/07/15 04:37:16;;;;;;;0.63;0.60;;;15.80;99.90;;;16.57;100.00;-21131.72;5072082;28;20428;-81
2021/07/15 04:39:45;;;;;;;0.63;0.60;;;15.80;99.90;;;16.65;100.00;-21133.75;5071901;28;20454;-81
2021/07/15 04:42:16;;;;;;;0.70;0.63;;;15.80;99.90;;;16.68;100.00;-21134.59;5069150;28;20823;-81
2021/07/15 04:44:46;;;;;;;0.70;0.70;;;15.90;99.90;;;16.77;100.00;-21137.06;5103150;28;20460;-80
2021/07/15 04:47:18;;;;;;;0.63;0.60;;;16.00;99.90;;;16.79;100.00;-21137.63;5104999;28;20876;-81
2021/07/15 04:49:48;;;;;;;0.70;0.70;;;16.00;99.90;;;16.80;100.00;-21137.88;5071983;28;20444;-81
2021/07/15 04:52:20;;;;;;;0.60;0.60;;;16.00;99.90;;;16.82;100.00;-21138.44;5086834;28;20467;-81
2021/07/15 04:54:50;;;;;;;0.70;0.70;;;16.10;99.90;;;16.85;100.00;-21139.25;5071676;28;20509;-81
2021/07/15 04:57:24;;;;;;;0.70;0.70;;;16.00;99.90;;;16.84;100.00;-21138.97;5071893;28;20406;-81
2021/07/15 05:00:00;;;;;;;0.70;0.60;;;16.00;99.90;;;16.79;100.00;-21137.47;5072587;28;20489;-81
2021/07/15 05:02:38;;;;;;;0.70;0.60;;;16.00;99.90;;;16.76;100.00;-21136.78;5071141;28;20459;-82
2021/07/15 05:05:24;;;;;;;0.70;0.70;;;16.00;99.90;;;16.80;100.00;-21137.75;5085436;28;20907;-82
2021/07/15 05:07:59;;;;;;;0.70;0.60;;;16.10;99.90;;;16.88;100.00;-21139.94;5100764;28;20492;-82
2021/07/15 05:10:28;;;;;;;0.67;0.60;;;16.10;99.90;;;16.81;100.00;-21138.16;5069869;28;20439;-81
2021/07/15 05:13:02;;;;;;;0.70;0.60;;;16.10;99.90;;;16.86;100.00;-21139.53;5091171;28;20462;-82
2021/07/15 05:15:37;;;;;;;0.70;0.60;;;16.10;99.90;;;17.14;100.00;-21146.94;5090669;28;20415;-81
2021/07/15 05:18:07;;;;;;;0.70;0.70;;;16.30;99.90;;;17.47;100.00;-21155.84;5074945;28;20431;-82
2021/07/15 05:20:37;;;;;;;0.70;0.70;;;16.50;99.90;;;17.69;100.00;-21161.75;5091036;28;20917;-81
2021/07/15 05:23:25;;;;;;;0.60;0.60;;;16.80;99.90;;;17.71;100.00;-21162.28;5094097;28;20459;-82
2021/07/15 05:25:56;;;;;;;0.60;0.60;;;16.90;99.90;;;17.83;100.00;-21165.59;5096356;28;20407;-81
2021/07/15 05:28:27;;;;;;;0.60;0.60;;;16.90;99.90;;;18.02;100.00;-21170.53;5094770;28;20416;-82
2021/07/15 05:31:02;;;;;;;0.60;0.60;;;17.10;99.90;;;18.09;100.00;-21172.44;5088453;28;20443;-82
2021/07/15 05:33:37;;;;;;;0.70;0.70;;;17.20;99.90;;;18.20;100.00;-21175.47;5075370;28;20505;-81
2021/07/15 05:36:08;;;;;;;0.70;0.60;;;17.20;99.90;;;18.27;100.00;-21177.25;5076696;28;20406;-81
2021/07/15 05:38:42;;;;;;;0.60;0.60;;;17.30;99.90;;;18.26;100.00;-21177.09;5073217;28;20463;-81
2021/07/15 05:41:10;;;;;;;0.70;0.60;;;17.40;99.90;;;18.25;100.00;-21176.81;5093684;28;20438;-81
2021/07/15 05:43:39;;;;;;;0.70;0.60;;;17.30;99.90;;;18.26;100.00;-21177.09;5078224;28;20556;-81
2021/07/15 05:46:07;;;;;;;0.70;0.67;;;17.30;99.90;;;18.35;100.00;-21179.44;5078575;28;20424;-81
2021/07/15 05:48:35;;;;;;;0.70;0.63;;;17.40;99.90;;;18.46;100.00;-21182.31;5094085;28;20434;-80
2021/07/15 05:51:04;;;;;;;0.70;0.70;;;17.50;99.90;;;18.55;100.00;-21184.75;5096561;28;20949;-80
2021/07/15 05:53:32;;;;;;;0.70;0.60;;;17.60;99.90;;;18.62;100.00;-21186.69;5090996;28;20458;-81
2021/07/15 05:56:02;;;;;;;0.67;0.60;;;17.60;99.90;;;18.65;100.00;-21187.38;5073958;28;20830;-79
2021/07/15 05:58:31;;;;;;;0.70;0.70;;;17.60;99.90;;;18.52;100.00;-21184.09;5073339;28;20493;-81
2021/07/15 06:01:10;;;;;;;0.77;0.77;;;17.50;99.90;;;18.59;100.00;-21185.84;5075319;28;20841;-81
2021/07/15 06:03:38;;;;;;;0.60;0.60;;;17.60;99.90;;;18.76;100.00;-21190.53;5091423;28;20459;-81
2021/07/15 06:06:09;;;;;;;0.70;0.67;;;17.70;99.90;;;18.66;100.00;-21187.78;5091654;28;20492;-82
2021/07/15 06:08:37;;;;;;;0.70;0.60;;;17.80;99.90;;;18.77;100.00;-21190.78;5080159;28;20458;-81
2021/07/15 06:11:05;;;;;;;0.70;0.70;;;17.80;99.90;;;18.85;100.00;-21192.72;5082752;28;20448;-81
2021/07/15 06:13:33;;;;;;;0.70;0.60;;;17.80;99.90;;;19.02;100.00;-21197.34;5110852;28;20889;-80
2021/07/15 06:16:02;;;;;;;0.70;0.60;;;17.80;99.90;;;18.91;100.00;-21194.50;5094017;28;20507;-80
2021/07/15 06:18:29;;;;;;;0.70;0.60;;;18.00;99.90;;;19.14;100.00;-21200.66;5093202;28;20454;-80
2021/07/15 06:20:58;;;;;;;0.70;0.60;;;18.00;99.90;;;19.12;100.00;-21200.09;5094658;28;20946;-81
2021/07/15 06:23:31;;;;;;;0.60;0.60;;;18.10;99.90;;;19.02;100.00;-21197.50;5094399;28;20474;-81
2021/07/15 06:26:00;;;;;;;0.70;0.60;;;18.10;99.90;;;18.98;100.00;-21196.25;5096119;28;20861;-81
2021/07/15 06:28:28;;;;;;;0.70;0.60;;;17.90;99.90;;;18.80;100.00;-21191.47;5093651;28;20464;-82
2021/07/15 06:30:57;;;;;;;0.70;0.63;;;17.80;99.90;;;18.68;100.00;-21188.19;5094553;28;20479;-81
2021/07/15 06:33:25;;;;;;;0.70;0.60;;;17.80;99.90;;;18.62;100.00;-21186.69;5092468;28;20887;-81
2021/07/15 06:35:53;;;;;;;0.60;0.50;;;17.90;99.90;;;18.89;100.00;-21193.94;5069766;28;20410;-82
2021/07/15 06:38:42;;;;;;;0.70;0.60;;;17.90;99.90;;;18.69;100.00;-21188.59;5093856;28;20459;-82
2021/07/15 06:41:11;;;;;;;0.70;0.67;;;18.00;99.90;;;18.68;100.00;-21188.31;5088024;28;20435;-81
2021/07/15 06:43:41;;;;;;;0.70;0.60;;;18.10;99.90;;;18.91;100.00;-21194.50;5075460;28;20464;-81
2021/07/15 06:46:11;;;;;;;0.70;0.60;;;18.10;99.90;;;18.79;100.00;-21191.34;5093450;28;20410;-81
2021/07/15 06:48:39;;;;;;;0.70;0.63;;;18.10;99.90;;;18.94;100.00;-21195.16;5093406;28;20946;-81
2021/07/15 06:51:10;;;;;;;0.60;0.60;;;18.10;99.90;;;18.98;100.00;-21196.25;5076949;28;20442;-82
2021/07/15 06:53:42;;;;;;;0.70;0.67;;;18.20;99.90;;;18.92;100.00;-21194.63;5093258;28;20475;-81
2021/07/15 06:56:15;;;;;;;0.70;0.60;;;18.10;99.90;;;18.99;100.00;-21196.53;5077285;28;20446;-80
2021/07/15 06:58:43;;;;;;;0.70;0.60;;;18.30;99.90;;;19.18;100.00;-21201.72;5072815;28;20435;-80
2021/07/15 07:01:12;;;;;;;0.70;0.70;;;18.30;99.90;;;18.97;100.00;-21196.00;5066026;28;20432;-80
2021/07/15 07:03:40;;;;;;;0.70;0.70;;;18.20;99.90;;;19.19;100.00;-21202.00;5089345;28;20445;-79
2021/07/15 07:06:08;;;;;;;0.70;0.70;;;18.30;99.90;;;19.18;100.00;-21201.72;5074006;28;20492;-80
2021/07/15 07:08:36;;;;;;;0.70;0.60;;;18.50;99.90;;;19.30;100.00;-21204.88;5078618;28;20470;-80
2021/07/15 07:11:14;;;;;;;0.70;0.70;;;18.50;99.90;;;19.23;100.00;-21203.09;5077688;28;20914;-80
2021/07/15 07:13:41;;;;;;;0.70;0.60;;;18.60;99.90;;;19.28;100.00;-21204.47;5088275;28;20415;-81
2021/07/15 07:16:10;;;;;;;0.70;0.60;;;18.70;99.90;;;19.81;100.00;-21218.41;5073882;28;20431;-80
2021/07/15 07:18:38;;;;;;;0.70;0.70;;;18.80;99.90;;;19.63;100.00;-21213.63;5072430;28;20468;-80
2021/07/15 07:21:06;;;;;;;0.70;0.60;;;18.80;99.90;;;20.07;100.00;-21225.38;5091958;28;20860;-80
2021/07/15 07:23:33;;;;;;;0.70;0.67;;;19.00;99.90;;;19.64;100.00;-21213.91;5076276;28;20515;-79
2021/07/15 07:26:01;;;;;;;0.70;0.60;;;19.20;99.90;;;19.78;100.00;-21217.75;5093988;28;20498;-80
2021/07/15 07:28:30;;;;;;;0.70;0.60;;;19.10;99.90;;;19.82;100.00;-21218.69;5076610;28;20474;-80
2021/07/15 07:30:58;;;;;;;0.70;0.60;;;19.10;99.90;;;19.80;100.00;-21218.28;5090875;28;21098;-79
2021/07/15 07:33:25;;;;;;;0.70;0.60;;;19.00;99.90;;;19.79;100.00;-21218.16;5079674;28;20439;-78
2021/07/15 07:35:54;;;;;;;0.70;0.60;;;19.20;99.90;;;19.87;100.00;-21220.19;5089030;28;20420;-80
2021/07/15 07:38:21;;;;;;;0.70;0.60;;;19.30;99.90;;;20.09;100.00;-21226.06;5092558;28;20503;-80
2021/07/15 07:40:49;;;;;;;0.70;0.63;;;19.40;99.90;;;20.05;100.00;-21224.84;5091809;28;20419;-78
2021/07/15 07:43:17;;;;;;;0.70;0.60;;;19.60;99.90;;;20.25;100.00;-21230.31;5091750;28;20489;-78
2021/07/15 07:45:46;;;;;;;0.70;0.60;;;19.70;99.90;;;20.75;100.00;-21243.81;5071463;28;20810;-80
2021/07/15 07:48:13;;;;;;;0.70;0.60;;;19.90;99.90;;;20.71;100.00;-21242.75;5072032;28;20412;-78
2021/07/15 07:50:41;;;;;;;0.70;0.60;;;20.30;99.90;;;20.57;100.00;-21238.91;5088797;28;20497;-78
2021/07/15 07:53:09;;;;;;;0.70;0.60;;;20.30;99.90;;;20.78;100.00;-21244.38;5070779;28;21037;-78
2021/07/15 07:55:37;;;;;;;0.70;0.60;;;20.50;99.90;;;20.79;100.00;-21244.66;5073632;28;21009;-78
2021/07/15 07:58:06;;;;;;;0.70;0.60;;;20.50;99.90;;;21.13;100.00;-21253.94;5072793;28;20435;-78
2021/07/15 08:00:33;;;;;;;0.80;0.80;;;20.60;99.90;;;21.81;100.00;-21271.94;5072650;28;20482;-77
2021/07/15 08:03:02;;;;;;;0.70;0.60;;;20.90;99.90;;;21.82;100.00;-21272.34;5098983;28;20464;-78
2021/07/15 08:05:33;;;;;;;0.70;0.60;;;21.20;99.90;;;21.94;100.00;-21275.47;5064096;28;21488;-78
2021/07/15 08:08:00;;;;;;;0.70;0.50;;;21.40;99.90;;;21.75;100.00;-21270.28;5082230;28;20458;-78
2021/07/15 08:10:28;;;;;;;0.70;0.60;;;21.40;99.90;;;21.76;100.00;-21270.69;5084062;28;20927;-77
2021/07/15 08:12:55;;;;;;;0.90;0.80;;;21.50;99.90;;;21.68;100.00;-21268.66;5073045;28;20430;-77
2021/07/15 08:15:26;;;;;;;0.70;0.60;;;21.50;99.90;;;21.88;100.00;-21273.84;5083155;28;20498;-77
2021/07/15 08:17:54;;;;;;;0.70;0.60;;;21.50;99.90;;;21.75;100.00;-21270.44;5091578;28;20434;-77
2021/07/15 08:20:23;;;;;;;0.70;0.60;;;21.60;99.90;;;21.83;100.00;-21272.59;5092466;28;20450;-77
2021/07/15 08:22:50;;;;;;;0.70;0.60;;;21.60;99.90;;;22.06;100.00;-21278.75;5093458;28;20473;-76
2021/07/15 08:25:23;;;;;;;0.70;0.50;;;21.60;99.90;;;22.06;100.00;-21278.59;5075619;28;20442;-77
2021/07/15 08:27:52;;;;;;;0.70;0.60;;;21.80;99.90;;;22.23;100.00;-21283.09;5083888;28;20600;-77
2021/07/15 08:30:20;;;;;;;0.70;0.57;;;21.90;99.90;;;22.19;100.00;-21282.28;5055388;28;20448;-76
2021/07/15 08:32:49;;;;;;;0.70;0.60;;;22.20;99.90;;;22.43;100.00;-21288.56;5088016;28;20504;-76
2021/07/15 08:35:27;;;;;;;0.70;0.60;;;22.40;99.90;;;22.70;100.00;-21295.63;5091981;28;20961;-77
2021/07/15 08:37:55;;;;;;;0.70;0.50;;;22.60;99.90;;;23.28;100.00;-21311.28;5074663;28;20453;-76
2021/07/15 08:40:23;;;;;;;0.70;0.50;;;22.80;99.90;;;22.84;100.00;-21299.44;5091381;28;20487;-76
2021/07/15 08:42:52;;;;;;;0.70;0.50;;;22.80;99.90;;;22.83;100.00;-21299.31;5091852;28;20962;-75
2021/07/15 08:45:20;;;;;;;0.70;0.50;;;23.00;99.90;;;22.67;100.00;-21295.09;5080798;28;20427;-75
2021/07/15 08:47:50;;;;;;;0.70;0.50;;;23.10;99.90;;;23.32;100.00;-21312.22;5073778;28;20911;-76
2021/07/15 08:50:19;;;;;;;0.70;0.50;;;23.30;99.90;;;22.72;100.00;-21296.16;5071385;28;20450;-76
2021/07/15 08:52:50;;;;;;;0.70;0.60;;;23.20;99.90;;;23.00;100.00;-21303.66;5080734;28;20462;-76
2021/07/15 08:56:36;;;;;;;0.70;0.50;;;23.10;99.90;;;22.90;100.00;-21301.06;5081122;28;20935;-76
2021/07/15 08:58:10;;;;;;;0.70;0.60;;;23.10;99.90;;;22.71;100.00;-21295.91;5088010;28;20431;-77
2021/07/15 09:00:39;;;;;;;0.70;0.50;;;23.00;99.90;;;22.88;100.00;-21300.66;5054861;28;20477;-77
2021/07/15 09:03:08;;;;;;;0.70;0.50;;;23.00;99.90;;;23.27;100.00;-21310.88;5071250;28;20466;-77
2021/07/15 09:05:36;;;;;;;0.70;0.50;;;23.20;99.90;;;23.61;100.00;-21319.97;5072867;28;20783;-77
2021/07/15 09:08:06;;;;;;;0.70;0.50;;;23.40;99.90;;;24.01;100.00;-21330.72;5070680;28;20494;-76
2021/07/15 09:10:39;;;;;;;0.70;0.60;;;23.50;99.90;;;22.96;100.00;-21302.72;5070799;28;20991;-76
2021/07/15 09:13:08;;;;;;;0.70;0.50;;;23.50;99.90;;;23.31;100.00;-21311.97;5077580;28;20800;-77
2021/07/15 09:15:36;;;;;;;0.70;0.50;;;23.20;99.90;;;23.51;100.00;-21317.25;5091582;28;20438;-75
2021/07/15 09:18:12;;;;;;;0.70;0.50;;;23.20;99.90;;;24.15;100.00;-21334.25;5091101;28;20910;-77
2021/07/15 09:20:40;;;;;;;0.70;0.50;;;23.80;99.90;;;24.58;100.00;-21345.78;5072493;28;20446;-78
2021/07/15 09:23:12;;;;;;;0.70;0.50;;;24.60;99.90;;;24.21;100.00;-21336.00;5076925;28;20462;-78
2021/07/15 09:25:58;;;;;;;0.70;0.50;;;24.70;99.90;;;24.83;100.00;-21352.56;5092366;28;20770;-77
2021/07/15 09:28:31;;;;;;;0.70;0.50;;;24.80;99.90;;;25.10;100.00;-21359.63;5091551;28;20684;-77
2021/07/15 09:31:20;;;;;;;0.70;0.50;;;25.20;99.90;;;24.83;100.00;-21352.44;5089824;28;20797;-77
2021/07/15 09:33:51;;;;;;;0.70;0.50;;;25.60;99.90;;;25.48;100.00;-21369.81;5071059;28;20439;-78
2021/07/15 09:36:21;;;;;;;0.70;0.50;;;26.00;99.90;;;25.73;100.00;-21376.31;5071324;28;20534;-78
2021/07/15 09:38:51;;;;;;;0.70;0.50;;;26.10;99.90;;;25.59;100.00;-21372.50;5070648;28;20482;-77
2021/07/15 09:41:20;;;;;;;0.70;0.50;;;26.00;99.90;;;25.70;100.00;-21375.47;5054269;28;20431;-77
2021/07/15 09:43:48;;;;;;;0.70;0.50;;;26.10;99.90;;;25.60;100.00;-21372.91;5070037;28;20986;-78
2021/07/15 09:46:23;;;;;;;0.70;0.50;;;26.00;99.90;;;25.27;100.00;-21364.25;5054019;28;20428;-78
2021/07/15 09:49:03;;;;;;;0.70;0.50;;;25.90;99.90;;;25.27;100.00;-21364.09;5071267;28;20440;-77
2021/07/15 09:51:42;;;;;;;0.70;0.50;;;26.00;99.90;;;25.04;100.00;-21358.13;5079003;28;20803;-77
2021/07/15 09:54:12;;;;;;;0.70;0.60;;;25.50;99.90;;;24.77;100.00;-21350.81;5091342;28;20482;-77
2021/07/15 09:56:42;;;;;;;0.70;0.50;;;25.30;99.90;;;24.14;100.00;-21333.97;5092453;28;20501;-78
2021/07/15 09:59:10;;;;;;;0.70;0.50;;;24.90;99.90;;;24.19;100.00;-21335.47;5073373;28;20464;-78
2021/07/15 10:01:45;;;;;;;0.70;0.50;;;24.60;99.90;;;24.21;100.00;-21336.00;5080823;28;20867;-78
2021/07/15 10:04:19;;;;;;;0.70;0.50;;;24.40;99.90;;;24.23;100.00;-21336.56;5087027;28;20461;-78
2021/07/15 10:06:50;;;;;;;0.70;0.50;;;24.40;99.90;;;24.10;100.00;-21333.16;5070163;28;20439;-78
2021/07/15 10:09:24;;;;;;;0.70;0.50;;;24.30;99.90;;;24.57;100.00;-21345.66;5076553;28;20504;-78
2021/07/15 10:11:57;;;;;;;0.70;0.50;;;24.40;99.90;;;24.24;100.00;-21336.81;5058679;28;20430;-79
2021/07/15 10:14:40;;;;;;;1.00;0.90;;;24.20;99.90;;;24.30;100.00;-21338.31;5074821;28;20438;-78
2021/07/15 10:17:10;;;;;;;0.70;0.50;;;24.30;99.90;;;24.47;100.00;-21342.94;5074905;28;20967;-78
2021/07/15 10:20:10;;;;;;;0.70;0.50;;;24.50;99.90;;;23.94;100.00;-21328.81;5075575;28;20442;-79
2021/07/15 10:22:42;;;;;;;0.70;0.50;;;24.30;99.90;;;24.57;100.00;-21345.53;5076012;28;20961;-78
2021/07/15 10:25:16;;;;;;;0.70;0.50;;;24.40;99.90;;;24.35;100.00;-21339.81;5056405;28;20475;-82